< < Back
Terminal Aerodrome Forecast


Current Version              Previous Versions:   1  2  3  4  5  6  7  8  9  

Terminal Aerodrome Forecast

138
FTUS42 KGSP 162300
TAFAND
TAF
KAND 162320Z 1700/1724 07008KT P6SM SKC
     FM171300 06012KT P6SM SCT250
      TEMPO 1713/1717 06012G18KT
     FM172200 08008KT P6SM SCT050 SCT250=

Latest METAR

003
SAUS70 KWBC 170100 RRB
MTRAND
METAR KAND 170056Z AUTO 09004KT 10SM CLR 09/00 A3032 RMK AO2 SLP268
T00890000


USA.gov is the U.S. government's official web portal to all federal, state and local government web resources and services.